Airfield :
LOGIN :

Register | Disclaimer

   EN    FR    IT 

 










Legend :    VFR   Marginal VFR   IFR   Intensive IFR   Very Intensive IFR
Visi :
Ceiling :
>= 8 km
>= 3000ft
5 to 8 km
1000 to 3000 ft
1500m to 5 km
500 to 1000 ft
800 to 1500m
200 to 500 ft
< 800m
< 200 ft
Symbols :   Thunderstorms  Fog  Heavy snow  Heavy precipitations  Wind > 20 kt
SIGMETs :     Misc.  Thunderstorms  Icing  Turbulence  Mountain Waves  Volcanic Ashes






- Airport Elevation : 319 ft


EIME - Casement Air Base

CURRENT METAR :
  • 251300Z 23011KT 9999 FEW016 BKN250 04/M00 Q1011

EXPIRED METARs :
  • 251230Z 23010KT 9999 FEW016 SCT170 BKN250 03/M00 Q1011
  • 251200Z 23014KT 9999 FEW017 SCT180 BKN250 02/M01 Q1011
  • 251130Z 23008KT 9999 FEW018 BKN250 03/M00 Q1011
  • 251100Z 22008KT CAVOK 02/M00 Q1010
  • 251030Z 22008KT CAVOK 02/00 Q1010

TAF TAF EIME
Valid from the 25 at 06:00 until the 25 at 15:00 UTC


250500Z 2506/2515 22010KT 9999 FEW008



MET'MAP, your aeronautical weather chart ! - Copyright ORBIFLY December 2007 - Disclaimer

ORBIFLY MET'MAP TEAM :

Programming & Development : Alexandra Zaïnal
Concept & original design : Baudouin d'Aumeries
Assistance for programming : Marc-Olivier Méhu
Technical & hardware support : Manuel Goepfert

Contact : metmap@orbifly.com




SOURCES & CREDITS :

   NOAA